TimeMST,TemperatureF,Dew PointF,Humidity,Sea Level PressureIn,VisibilityMPH,Wind Direction,Wind SpeedMPH,Gust SpeedMPH,PrecipitationIn,Events,Conditions,WindDirDegrees,DateUTC
12:53 AM,21.9,18.0,85,30.11,7.0,East,3.5,-,N/A,,Clear,90,2013-03-08 07:53:00
1:45 AM,21.2,17.6,86,30.00,6.0,ENE,6.9,-,N/A,,Scattered Clouds,70,2013-03-08 08:45:00
1:53 AM,21.9,19.0,89,30.10,0.5,NE,9.2,-,N/A,,Mostly Cloudy,50,2013-03-08 08:53:00
2:02 AM,21.2,19.4,93,30.00,0.2,ENE,8.1,-,N/A,,Overcast,60,2013-03-08 09:02:00
2:25 AM,21.2,19.4,93,30.00,0.2,East,5.8,-,N/A,Fog,Light Freezing Fog,80,2013-03-08 09:25:00
2:53 AM,21.0,18.0,88,30.10,0.2,East,5.8,-,N/A,Fog,Light Freezing Fog,90,2013-03-08 09:53:00
3:53 AM,21.0,18.0,88,30.09,0.2,East,3.5,-,N/A,Fog,Light Freezing Fog,80,2013-03-08 10:53:00
4:53 AM,21.9,17.1,82,30.08,0.2,Calm,Calm,-,N/A,,Haze,0,2013-03-08 11:53:00
5:53 AM,21.0,16.0,81,30.10,0.2,Calm,Calm,-,N/A,,Haze,0,2013-03-08 12:53:00
6:22 AM,21.2,15.8,80,29.97,0.2,Calm,Calm,-,N/A,,Haze,0,2013-03-08 13:22:00
6:53 AM,21.0,16.0,81,30.11,0.2,Variable,3.5,-,N/A,,Haze,0,2013-03-08 13:53:00
7:53 AM,21.9,17.1,82,30.10,0.2,WSW,3.5,-,N/A,,Haze,250,2013-03-08 14:53:00
8:37 AM,21.2,17.6,86,29.95,0.2,Calm,Calm,-,N/A,Fog,Light Freezing Fog,0,2013-03-08 15:37:00
8:53 AM,23.0,17.1,78,30.10,0.2,Calm,Calm,-,N/A,,Haze,0,2013-03-08 15:53:00
9:53 AM,25.0,19.9,81,30.10,0.2,Calm,Calm,-,N/A,,Haze,0,2013-03-08 16:53:00
10:53 AM,30.0,24.1,79,30.08,0.8,Calm,Calm,-,N/A,,Haze,0,2013-03-08 17:53:00
11:22 AM,32.0,26.6,80,29.93,7.0,Calm,Calm,-,N/A,,Mostly Cloudy,0,2013-03-08 18:22:00
11:39 AM,32.0,26.6,80,29.92,10.0,Calm,Calm,-,N/A,,Partly Cloudy,0,2013-03-08 18:39:00
11:53 AM,32.0,25.0,75,30.06,10.0,Calm,Calm,-,N/A,,Clear,0,2013-03-08 18:53:00
12:53 PM,39.0,25.0,57,30.03,10.0,NE,6.9,-,N/A,,Clear,40,2013-03-08 19:53:00
1:53 PM,42.1,21.9,45,29.99,10.0,ENE,3.5,-,N/A,,Clear,70,2013-03-08 20:53:00
2:53 PM,42.1,24.1,49,29.98,10.0,ENE,8.1,-,N/A,,Clear,60,2013-03-08 21:53:00
3:53 PM,41.0,24.1,51,29.99,10.0,ENE,10.4,-,N/A,,Clear,60,2013-03-08 22:53:00
4:53 PM,39.0,24.1,55,29.99,10.0,ENE,11.5,-,N/A,,Clear,70,2013-03-08 23:53:00
5:53 PM,36.0,21.9,57,30.01,10.0,East,6.9,-,N/A,,Clear,80,2013-03-09 00:53:00
6:53 PM,30.0,19.9,66,30.04,10.0,ENE,6.9,-,N/A,,Clear,60,2013-03-09 01:53:00
7:53 PM,27.0,19.9,75,30.06,10.0,NE,5.8,-,N/A,,Clear,40,2013-03-09 02:53:00
8:53 PM,28.0,21.0,75,30.08,10.0,NE,4.6,-,N/A,,Clear,40,2013-03-09 03:53:00
9:53 PM,21.9,17.1,82,30.10,10.0,SSW,3.5,-,N/A,,Clear,210,2013-03-09 04:53:00
10:53 PM,24.1,19.0,81,30.08,10.0,SSW,4.6,-,N/A,,Clear,200,2013-03-09 05:53:00
11:53 PM,19.9,16.0,85,30.10,10.0,SW,5.8,-,N/A,,Clear,220,2013-03-09 06:53:00